Terminal Aerodrome Forecast
Issued by NWS

Home | Current Version | Previous Version | Text Only | Print | Product List | Glossary On
Versions: 1 2 3 4 5 6 7 8 9 10 11 12
000
FTUS45 KABQ 281135
TAFROW
TAF
KROW 281135Z 2812/2912 36006KT P6SM BKN120
     FM282100 04006KT P6SM VCTS BKN070CB
     FM290100 10007KT P6SM VCSH BKN100
     FM290400 02007KT P6SM BKN100=

USA.gov is the U.S. government's official web portal to all federal, state and local government web resources and services.